Time;durP1;ratioP1;P1;durP2;ratioP2;P2;SDS_P1;SDS_P2;PMS_P1;PMS_P2;Temp;Humidity;BMP_temperature;BMP_pressure;BME280_temperature;BME280_humidity;BME280_pressure;Samples;Min_cycle;Max_cycle;Signal;HPM_P1;HPM_P2
2024/02/23 00:00:29;;;;;;;13.63;1.65;;;;;;;-146.27;82.03;44499.69;5068626;28;20033;-75
2024/02/23 00:02:57;;;;;;;12.18;1.35;;;;;;;-146.27;81.33;44465.88;5068412;28;20050;-75
2024/02/23 00:05:22;;;;;;;11.32;1.63;;;;;;;-146.27;81.45;44440.00;5068755;28;20405;-75
2024/02/23 00:07:48;;;;;;;6.65;1.10;;;;;;;-146.27;80.85;44543.47;5069736;28;20034;-75
2024/02/23 00:10:13;;;;;;;6.28;1.00;;;;;;;-146.27;80.03;44523.56;5067699;28;20022;-75
2024/02/23 00:12:38;;;;;;;11.00;1.48;;;;;;;-146.27;79.69;44489.75;5068780;28;20436;-75
2024/02/23 00:15:04;;;;;;;8.10;1.33;;;;;;;-146.27;79.55;44547.44;5069108;28;20043;-75
2024/02/23 00:17:29;;;;;;;14.88;1.67;;;;;;;-146.27;79.67;44569.34;5069370;28;20029;-75
2024/02/23 00:19:55;;;;;;;8.55;1.52;;;;;;;-146.27;79.95;44503.69;5066890;28;20021;-75
2024/02/23 00:22:20;;;;;;;11.88;1.70;;;;;;;-146.27;79.61;44539.50;5069430;28;20033;-75
2024/02/23 00:24:46;;;;;;;8.48;1.45;;;;;;;-146.27;79.58;44569.34;5069176;28;20029;-75
2024/02/23 00:27:11;;;;;;;7.95;1.08;;;;;;;-146.27;79.05;44507.66;5071943;28;20052;-75
2024/02/23 00:29:37;;;;;;;8.05;1.15;;;;;;;-146.27;79.83;44509.66;5069869;28;20020;-75
2024/02/23 00:32:03;;;;;;;8.70;1.45;;;;;;;-146.27;78.40;44585.25;5072955;28;20028;-75
2024/02/23 00:34:31;;;;;;;8.88;1.10;;;;;;;-146.27;77.74;44648.94;5072832;28;20025;-75
2024/02/23 00:36:57;;;;;;;9.13;2.28;;;;;;;-146.27;77.42;44563.38;5070539;28;20408;-75
2024/02/23 00:39:23;;;;;;;9.85;1.45;;;;;;;-146.27;76.69;44650.94;5077579;28;20031;-75
2024/02/23 00:41:48;;;;;;;12.45;1.40;;;;;;;-146.27;76.95;44571.34;5072662;28;20032;-75
2024/02/23 00:44:14;;;;;;;7.18;1.38;;;;;;;-146.27;76.85;44652.91;5071614;28;20021;-75
2024/02/23 00:46:39;;;;;;;16.98;1.98;;;;;;;-146.27;77.22;44613.13;5071469;28;20036;-75
2024/02/23 00:49:05;;;;;;;8.68;2.42;;;;;;;-146.27;77.06;44629.03;5070907;28;20448;-75
2024/02/23 00:51:31;;;;;;;15.68;2.25;;;;;;;-146.27;77.79;44597.19;5068313;28;20074;-76
2024/02/23 00:53:56;;;;;;;5.05;1.75;;;;;;;-146.27;77.71;44615.09;5071547;28;20427;-75
2024/02/23 00:56:22;;;;;;;13.27;1.33;;;;;;;-146.27;76.95;44706.63;5072194;28;20030;-75
2024/02/23 00:58:47;;;;;;;4.32;0.98;;;;;;;-146.27;76.98;44712.59;5070854;28;20054;-74
2024/02/23 01:01:12;;;;;;;4.90;1.20;;;;;;;-146.27;76.35;44631.03;5070842;28;20070;-75
2024/02/23 01:03:38;;;;;;;15.70;2.55;;;;;;;-146.27;76.75;44609.13;5070686;28;20495;-75
2024/02/23 01:06:03;;;;;;;9.18;2.83;;;;;;;-146.27;76.54;44664.84;5070816;28;20028;-75
2024/02/23 01:08:29;;;;;;;6.93;1.38;;;;;;;-146.27;75.55;44662.88;5071902;28;20099;-75
2024/02/23 01:10:54;;;;;;;6.40;0.98;;;;;;;-146.27;75.63;44617.09;5078150;28;20036;-75
2024/02/23 01:13:19;;;;;;;6.57;1.10;;;;;;;-146.27;75.08;44768.31;5071645;28;20052;-74
2024/02/23 01:15:45;;;;;;;6.90;1.20;;;;;;;-146.27;74.81;44736.50;5068405;28;20047;-75
2024/02/23 01:18:10;;;;;;;5.40;1.20;;;;;;;-146.27;75.48;44716.59;5070880;28;20028;-75
2024/02/23 01:20:36;;;;;;;8.27;1.40;;;;;;;-146.27;75.78;44718.56;5069066;28;20031;-75
2024/02/23 01:23:01;;;;;;;7.35;1.50;;;;;;;-146.27;76.19;44700.66;5070754;28;20047;-75
2024/02/23 01:25:27;;;;;;;3.88;1.05;;;;;;;-146.27;77.03;44664.84;5068921;28;20043;-76
2024/02/23 01:27:52;;;;;;;9.13;1.55;;;;;;;-146.27;80.52;44772.31;5070832;28;20643;-74
2024/02/23 01:30:19;;;;;;;10.98;1.63;;;;;;;-146.27;83.09;44698.69;5069208;28;20503;-75
2024/02/23 01:32:45;;;;;;;7.03;1.25;;;;;;;-146.27;85.18;44668.84;5070886;28;20051;-75
2024/02/23 01:35:10;;;;;;;14.18;1.45;;;;;;;-146.27;84.83;44676.78;5070596;28;20198;-75
2024/02/23 01:37:36;;;;;;;10.70;1.42;;;;;;;-146.27;85.15;44640.97;5070885;28;20024;-75
2024/02/23 01:40:02;;;;;;;12.27;1.67;;;;;;;-146.27;85.33;44613.13;5069865;28;20028;-75
2024/02/23 01:42:27;;;;;;;4.40;1.00;;;;;;;-146.27;88.53;44690.72;5061995;28;20118;-74
2024/02/23 01:44:53;;;;;;;15.05;1.77;;;;;;;-146.27;87.63;44565.38;5070895;28;20099;-75
2024/02/23 01:47:19;;;;;;;10.80;2.85;;;;;;;-146.27;87.90;44623.06;5069664;28;20028;-75
2024/02/23 01:49:47;;;;;;;7.35;1.33;;;;;;;-146.27;87.79;44613.13;5066950;28;20415;-75
2024/02/23 01:52:14;;;;;;;8.85;1.65;;;;;;;-146.27;86.92;44581.28;5069622;28;20036;-74
2024/02/23 01:54:40;;;;;;;9.55;1.55;;;;;;;-146.27;85.80;44625.06;5073960;28;20423;-75
2024/02/23 01:57:08;;;;;;;8.80;1.48;;;;;;;-146.27;85.40;44666.84;5070072;28;20016;-75
2024/02/23 01:59:37;;;;;;;18.45;1.88;;;;;;;-146.27;84.43;44650.94;5068433;28;20680;-74
2024/02/23 02:02:03;;;;;;;9.40;1.40;;;;;;;-146.27;83.89;44652.91;5068880;28;20024;-74
2024/02/23 02:04:28;;;;;;;16.75;1.92;;;;;;;-146.27;83.42;44656.91;5068822;28;20067;-74
2024/02/23 02:06:55;;;;;;;5.63;1.38;;;;;;;-146.27;83.00;44700.66;5071330;28;20061;-75
2024/02/23 02:09:20;;;;;;;5.47;1.50;;;;;;;-146.27;82.96;44712.59;5070097;28;20017;-74
2024/02/23 02:11:47;;;;;;;7.78;1.30;;;;;;;-146.27;82.48;44792.22;5069342;28;20036;-74
2024/02/23 02:14:13;;;;;;;8.75;1.10;;;;;;;-146.27;81.92;44706.63;5072553;28;20039;-75
2024/02/23 02:16:38;;;;;;;6.65;1.05;;;;;;;-146.27;82.17;44762.34;5073488;28;20036;-75
2024/02/23 02:19:04;;;;;;;8.95;1.35;;;;;;;-146.27;81.09;44702.66;5062431;28;20454;-74
2024/02/23 02:21:31;;;;;;;7.63;1.50;;;;;;;-146.27;81.16;44710.63;5070011;28;20029;-74
2024/02/23 02:23:56;;;;;;;8.20;0.88;;;;;;;-146.27;81.38;44724.56;5074815;28;20024;-74
2024/02/23 02:26:22;;;;;;;12.32;1.25;;;;;;;-146.27;80.71;44726.53;5070155;28;20041;-75
2024/02/23 02:28:47;;;;;;;7.70;1.20;;;;;;;-146.27;81.03;44740.47;5070627;28;20104;-75
2024/02/23 02:31:13;;;;;;;8.85;1.10;;;;;;;-146.27;81.13;44732.50;5068823;28;20466;-74
2024/02/23 02:33:40;;;;;;;13.00;1.63;;;;;;;-146.27;81.24;44698.69;5070182;28;20042;-75
2024/02/23 02:36:06;;;;;;;9.70;1.30;;;;;;;-146.27;81.88;44740.47;5070148;28;20459;-74
2024/02/23 02:38:33;;;;;;;9.70;1.17;;;;;;;-146.27;82.76;44732.50;5075271;28;20123;-74
2024/02/23 02:41:00;;;;;;;10.90;1.42;;;;;;;-146.27;82.59;44704.66;5069009;28;20028;-74
2024/02/23 02:43:26;;;;;;;11.55;1.40;;;;;;;-146.27;82.22;44722.56;5057842;28;20055;-75
2024/02/23 02:45:51;;;;;;;9.43;1.15;;;;;;;-146.27;81.80;44722.56;5068828;28;20081;-75
2024/02/23 02:48:16;;;;;;;17.58;2.00;;;;;;;-146.27;81.03;44680.78;5062081;28;20039;-75
2024/02/23 02:50:42;;;;;;;8.25;0.88;;;;;;;-146.27;80.53;44722.56;5053739;28;20032;-75
2024/02/23 02:53:08;;;;;;;12.52;1.05;;;;;;;-146.27;80.18;44730.53;5069904;28;20033;-75
2024/02/23 02:55:33;;;;;;;10.23;1.55;;;;;;;-146.27;79.58;44660.88;5068638;28;20479;-75
2024/02/23 02:57:59;;;;;;;10.07;1.75;;;;;;;-146.27;79.85;44708.63;5069575;28;20404;-75
2024/02/23 03:00:24;;;;;;;14.77;1.42;;;;;;;-146.27;79.93;44736.50;5066987;28;20028;-74
2024/02/23 03:02:49;;;;;;;12.32;1.63;;;;;;;-146.27;80.43;44744.44;5069210;28;20029;-75
2024/02/23 03:05:15;;;;;;;5.93;0.93;;;;;;;-146.27;80.56;44698.69;5069334;28;20441;-73
2024/02/23 03:07:40;;;;;;;9.05;1.15;;;;;;;-146.27;81.76;44728.53;5069647;28;20044;-75
2024/02/23 03:10:06;;;;;;;5.07;1.00;;;;;;;-146.27;82.38;44762.34;5068781;28;20464;-75
2024/02/23 03:12:32;;;;;;;9.35;1.40;;;;;;;-146.27;82.57;44776.28;5067039;28;20021;-75
2024/02/23 03:14:58;;;;;;;5.53;1.60;;;;;;;-146.27;82.83;44720.56;5068017;28;20463;-75
2024/02/23 03:17:23;;;;;;;6.72;1.30;;;;;;;-146.27;83.63;44714.59;5071033;28;20043;-75
2024/02/23 03:19:50;;;;;;;8.70;1.40;;;;;;;-146.27;84.29;44728.53;5066615;28;20024;-75
2024/02/23 03:22:15;;;;;;;8.98;1.73;;;;;;;-146.27;83.77;44712.59;5068731;28;20485;-74
2024/02/23 03:24:41;;;;;;;8.65;1.13;;;;;;;-146.27;83.93;44774.28;5068306;28;20031;-74
2024/02/23 03:27:06;;;;;;;10.15;1.48;;;;;;;-146.27;83.97;44740.47;5067369;28;20048;-75
2024/02/23 03:29:32;;;;;;;4.25;1.20;;;;;;;-146.27;84.37;44720.56;5069263;28;20052;-74
2024/02/23 03:31:58;;;;;;;12.98;1.42;;;;;;;-146.27;83.86;44768.31;5069647;28;20032;-75
2024/02/23 03:34:24;;;;;;;15.07;1.67;;;;;;;-146.27;84.57;44750.41;5069603;28;20074;-75
2024/02/23 03:36:49;;;;;;;7.63;1.50;;;;;;;-146.27;84.88;44762.34;5059431;28;20028;-75
2024/02/23 03:39:15;;;;;;;3.10;0.98;;;;;;;-146.27;84.51;44730.53;5069773;28;20035;-73
2024/02/23 03:41:40;;;;;;;11.25;1.17;;;;;;;-146.27;84.70;44738.47;5064802;28;20029;-74
2024/02/23 03:44:05;;;;;;;9.60;1.58;;;;;;;-146.27;84.71;44696.69;5060500;28;20538;-74
2024/02/23 03:46:31;;;;;;;5.10;0.85;;;;;;;-146.27;85.14;44710.63;5067898;28;20054;-75
2024/02/23 03:48:57;;;;;;;7.00;0.98;;;;;;;-146.27;84.62;44728.53;5066496;28;20028;-75
2024/02/23 03:51:23;;;;;;;8.40;1.08;;;;;;;-146.27;85.38;44772.31;5064253;28;20036;-74
2024/02/23 03:53:48;;;;;;;7.60;1.10;;;;;;;-146.27;85.23;44716.59;5068210;28;20037;-74
2024/02/23 03:56:14;;;;;;;7.10;0.70;;;;;;;-146.27;86.08;44764.34;5070337;28;20024;-74
2024/02/23 03:58:39;;;;;;;11.15;1.50;;;;;;;-146.27;85.88;44738.47;5066776;28;20110;-74
2024/02/23 04:01:05;;;;;;;9.25;1.40;;;;;;;-146.27;85.47;44706.63;5072367;28;20035;-72
2024/02/23 04:03:30;;;;;;;18.70;1.45;;;;;;;-146.27;86.58;44778.28;5071964;28;20036;-72
2024/02/23 04:05:55;;;;;;;4.28;1.30;;;;;;;-146.27;87.62;44786.25;5072593;28;20523;-72
2024/02/23 04:08:21;;;;;;;7.82;0.98;;;;;;;-146.27;87.32;44706.63;5070280;28;20510;-73
2024/02/23 04:10:46;;;;;;;7.55;1.10;;;;;;;-146.27;87.59;44740.47;5072650;28;20035;-73
2024/02/23 04:13:13;;;;;;;9.30;1.02;;;;;;;-146.27;86.92;44764.34;5073811;28;20107;-73
2024/02/23 04:15:39;;;;;;;17.65;1.92;;;;;;;-146.27;87.61;44726.53;5069785;28;20028;-73
2024/02/23 04:18:05;;;;;;;17.33;1.58;;;;;;;-146.27;87.04;44740.47;5073545;28;20524;-73
2024/02/23 04:20:32;;;;;;;9.10;1.63;;;;;;;-146.27;88.26;44756.38;5073581;28;20034;-72
2024/02/23 04:22:57;;;;;;;13.55;2.00;;;;;;;-146.27;87.59;44694.69;5072543;28;20542;-73
2024/02/23 04:25:22;;;;;;;6.93;1.73;;;;;;;-146.27;86.23;44684.75;5069571;28;20052;-72
2024/02/23 04:27:48;;;;;;;13.02;1.67;;;;;;;-146.27;87.42;44732.50;5071534;28;20131;-72
2024/02/23 04:30:14;;;;;;;9.23;1.50;;;;;;;-146.27;87.63;44656.91;5060935;28;20068;-73
2024/02/23 04:32:39;;;;;;;6.55;1.98;;;;;;;-146.27;88.00;44680.78;5069489;28;20029;-72
2024/02/23 04:35:05;;;;;;;12.85;1.30;;;;;;;-146.27;88.72;44696.69;5063289;28;20021;-72
2024/02/23 04:37:30;;;;;;;12.40;1.60;;;;;;;-146.27;88.40;44664.84;5070016;28;20089;-73
2024/02/23 04:39:56;;;;;;;10.65;1.50;;;;;;;-146.27;87.39;44633.00;5075343;28;20107;-72
2024/02/23 04:42:21;;;;;;;9.25;2.13;;;;;;;-146.27;87.76;44633.00;5071118;28;20028;-72
2024/02/23 04:44:49;;;;;;;11.30;1.50;;;;;;;-146.27;88.32;44656.91;5068557;28;20028;-72
2024/02/23 04:47:14;;;;;;;8.27;1.25;;;;;;;-146.27;87.49;44640.97;5064293;28;20028;-72
2024/02/23 04:49:40;;;;;;;5.47;1.40;;;;;;;-146.27;87.75;44650.94;5055682;28;20033;-74
2024/02/23 04:52:05;;;;;;;4.40;1.27;;;;;;;-146.27;87.53;44680.78;5060032;28;20063;-72
2024/02/23 04:54:30;;;;;;;7.40;1.20;;;;;;;-146.27;87.22;44666.84;5063129;28;20047;-72
2024/02/23 04:56:56;;;;;;;12.20;1.45;;;;;;;-146.27;86.97;44700.66;5068183;28;20025;-72
2024/02/23 04:59:21;;;;;;;9.55;0.65;;;;;;;-146.27;86.95;44694.69;5065750;28;20028;-71
2024/02/23 05:01:47;;;;;;;12.07;1.30;;;;;;;-146.27;86.54;44680.78;5067335;28;20066;-74
2024/02/23 05:04:12;;;;;;;8.73;0.85;;;;;;;-146.27;86.39;44668.84;5069154;28;20016;-74
2024/02/23 05:06:38;;;;;;;4.28;0.70;;;;;;;-146.27;85.55;44656.91;5067169;28;20028;-73
2024/02/23 05:09:03;;;;;;;4.13;0.75;;;;;;;-146.27;85.13;44714.59;5067282;28;20021;-73
2024/02/23 05:11:28;;;;;;;4.90;0.80;;;;;;;-146.27;85.67;44694.69;5061387;28;20063;-76
2024/02/23 05:13:54;;;;;;;3.90;0.57;;;;;;;-146.27;84.77;44680.78;5061133;28;20020;-74
2024/02/23 05:16:19;;;;;;;2.83;1.17;;;;;;;-146.27;85.40;44692.72;5063728;28;20523;-76
2024/02/23 05:18:46;;;;;;;5.63;0.82;;;;;;;-146.27;86.25;44680.78;5064107;28;20033;-74
2024/02/23 05:21:12;;;;;;;4.18;0.93;;;;;;;-146.27;86.84;44684.75;5066699;28;20025;-75
2024/02/23 05:23:37;;;;;;;3.40;0.93;;;;;;;-146.27;86.55;44652.91;5069658;28;20073;-75
2024/02/23 05:26:03;;;;;;;4.10;1.10;;;;;;;-146.27;87.93;44664.84;5061662;28;20467;-76
2024/02/23 05:28:28;;;;;;;9.63;1.45;;;;;;;-146.27;87.18;44601.19;5061634;28;20032;-75
2024/02/23 05:30:57;;;;;;;7.53;1.40;;;;;;;-146.27;88.27;44640.97;5066830;28;20453;-75
2024/02/23 05:33:23;;;;;;;4.80;1.25;;;;;;;-146.27;89.34;44668.84;5069521;28;20069;-74
2024/02/23 05:35:48;;;;;;;3.63;1.00;;;;;;;-146.27;88.21;44603.16;5062272;28;20052;-73
2024/02/23 05:38:14;;;;;;;5.05;1.88;;;;;;;-146.27;88.70;44690.72;5069424;28;20532;-74
2024/02/23 05:40:40;;;;;;;5.88;1.38;;;;;;;-146.27;88.50;44648.94;5064771;28;20123;-74
2024/02/23 05:43:06;;;;;;;7.45;1.30;;;;;;;-146.27;87.64;44623.06;5063184;28;20099;-73
2024/02/23 05:45:31;;;;;;;5.07;1.45;;;;;;;-146.27;86.85;44656.91;5062814;28;20063;-75
2024/02/23 05:47:56;;;;;;;6.05;1.27;;;;;;;-146.27;87.44;44752.41;5062672;28;20024;-75
2024/02/23 05:50:22;;;;;;;3.25;1.67;;;;;;;-146.27;86.50;44680.78;5069505;28;20025;-75
2024/02/23 05:52:47;;;;;;;5.57;1.45;;;;;;;-146.27;86.44;44730.53;5071010;28;20059;-75
2024/02/23 05:55:13;;;;;;;4.55;1.10;;;;;;;-146.27;86.25;44714.59;5069258;28;20043;-75
2024/02/23 05:57:38;;;;;;;10.90;1.60;;;;;;;-146.27;85.41;44670.81;5069340;28;20469;-75
2024/02/23 06:00:04;;;;;;;6.82;1.40;;;;;;;-146.27;84.64;44668.84;5070228;28;20457;-75
2024/02/23 06:02:30;;;;;;;8.43;1.60;;;;;;;-146.27;85.80;44698.69;5068651;28;20679;-76
2024/02/23 06:04:55;;;;;;;12.88;2.08;;;;;;;-146.27;85.52;44652.91;5070536;28;20052;-75
2024/02/23 06:07:27;;;;;;;8.85;2.03;;;;;;;-146.27;86.04;44746.44;5070929;28;20078;-74
2024/02/23 06:09:52;;;;;;;8.10;2.20;;;;;;;-146.27;86.43;44704.66;5070628;28;20455;-75
2024/02/23 06:12:17;;;;;;;6.85;2.17;;;;;;;-146.27;86.28;44668.84;5069661;28;20107;-75
2024/02/23 06:14:43;;;;;;;6.25;2.72;;;;;;;-146.27;86.18;44682.75;5070628;28;20112;-75
2024/02/23 06:17:08;;;;;;;5.00;2.45;;;;;;;-146.27;86.44;44690.72;5071406;28;20048;-74
2024/02/23 06:19:33;;;;;;;8.07;2.00;;;;;;;-146.27;86.87;44716.59;5067671;28;20043;-75
2024/02/23 06:21:59;;;;;;;7.43;2.08;;;;;;;-146.27;86.88;44652.91;5071122;28;20016;-75
2024/02/23 06:24:24;;;;;;;5.63;2.03;;;;;;;-146.27;86.40;44724.56;5070252;28;20020;-75
2024/02/23 06:26:51;;;;;;;11.23;2.22;;;;;;;-146.27;85.83;44700.66;5068185;28;20055;-75
2024/02/23 06:29:16;;;;;;;5.85;2.00;;;;;;;-146.27;86.31;44732.50;5063607;28;20025;-75
2024/02/23 06:31:42;;;;;;;4.65;1.90;;;;;;;-146.27;86.50;44740.47;5068704;28;20438;-75
2024/02/23 06:34:08;;;;;;;6.88;1.90;;;;;;;-146.27;86.30;44792.22;5072082;28;20051;-75
2024/02/23 06:36:33;;;;;;;7.25;2.97;;;;;;;-146.27;86.53;44778.28;5070444;28;20464;-75
2024/02/23 06:38:58;;;;;;;5.60;1.90;;;;;;;-146.27;85.89;44752.41;5069301;28;20528;-75
2024/02/23 06:41:24;;;;;;;4.55;1.75;;;;;;;-146.27;84.92;44712.59;5068139;28;20029;-74
2024/02/23 06:43:49;;;;;;;8.60;2.15;;;;;;;-146.27;84.48;44776.28;5070467;28;20016;-73
2024/02/23 06:46:14;;;;;;;3.85;1.63;;;;;;;-146.27;85.48;44764.34;5068976;28;20404;-75
2024/02/23 06:48:40;;;;;;;6.38;1.83;;;;;;;-146.27;84.83;44812.09;5068654;28;20060;-75
2024/02/23 06:51:09;;;;;;;10.43;2.05;;;;;;;-146.27;84.83;44754.41;5069391;28;20056;-75
2024/02/23 06:53:35;;;;;;;7.03;2.20;;;;;;;-146.27;84.36;44764.34;5067538;28;20032;-75
2024/02/23 06:56:00;;;;;;;6.18;2.15;;;;;;;-146.27;84.47;44830.00;5062908;28;20028;-74
2024/02/23 06:58:26;;;;;;;10.75;2.90;;;;;;;-146.27;84.43;44816.09;5064661;28;20103;-74
2024/02/23 07:00:52;;;;;;;6.85;2.20;;;;;;;-146.27;84.89;44871.81;5067382;28;20028;-75
2024/02/23 07:03:17;;;;;;;9.82;2.25;;;;;;;-146.27;85.26;44847.91;5069380;28;20651;-75
2024/02/23 07:05:45;;;;;;;5.72;2.40;;;;;;;-146.27;85.07;44935.47;5064010;28;20051;-75
2024/02/23 07:08:10;;;;;;;9.07;2.53;;;;;;;-146.27;84.64;44915.59;5067789;28;20023;-75
2024/02/23 07:10:36;;;;;;;13.27;2.85;;;;;;;-146.27;83.48;44843.94;5066106;28;20037;-74
2024/02/23 07:13:01;;;;;;;5.38;2.28;;;;;;;-146.27;83.28;44859.88;5066762;28;20476;-74
2024/02/23 07:15:26;;;;;;;8.27;2.20;;;;;;;-146.27;85.59;44945.44;5068978;28;20466;-74
2024/02/23 07:17:52;;;;;;;8.73;2.35;;;;;;;-146.27;85.70;44875.78;5069698;28;20024;-75
2024/02/23 07:20:17;;;;;;;8.43;2.47;;;;;;;-146.27;86.29;44875.78;5070867;28;20028;-73
2024/02/23 07:22:44;;;;;;;4.47;2.00;;;;;;;-146.27;87.46;44939.47;5070406;28;20488;-74
2024/02/23 07:25:10;;;;;;;6.82;2.03;;;;;;;-146.27;87.29;44923.53;5068901;28;20071;-74
2024/02/23 07:27:35;;;;;;;12.70;3.25;;;;;;;-146.27;87.21;44875.78;5070241;28;20471;-75
2024/02/23 07:30:02;;;;;;;7.38;2.33;;;;;;;-146.27;87.46;44883.75;5068973;28;20036;-76
2024/02/23 07:32:29;;;;;;;4.20;2.13;;;;;;;-146.27;87.12;44955.38;5065145;28;20030;-74
2024/02/23 07:34:55;;;;;;;10.63;3.08;;;;;;;-146.27;87.50;44951.41;5068227;28;20548;-74
2024/02/23 07:37:20;;;;;;;10.20;3.22;;;;;;;-146.27;87.26;44947.41;5069314;28;20107;-74
2024/02/23 07:39:45;;;;;;;12.73;3.25;;;;;;;-146.27;87.41;44897.66;5067318;28;20443;-75
2024/02/23 07:42:12;;;;;;;10.82;3.28;;;;;;;-146.27;87.39;44887.72;5078414;28;20041;-76
2024/02/23 07:44:38;;;;;;;8.38;2.63;;;;;;;-146.27;89.49;44915.59;5071779;28;20021;-75
2024/02/23 07:47:04;;;;;;;10.82;3.15;;;;;;;-146.27;91.11;44927.53;5075623;28;20029;-74
2024/02/23 07:49:30;;;;;;;4.63;2.50;;;;;;;-146.27;91.24;44921.56;5077546;28;20020;-74
2024/02/23 07:51:55;;;;;;;9.77;2.92;;;;;;;-146.27;92.53;44927.53;5075388;28;20044;-74
2024/02/23 07:54:20;;;;;;;8.73;2.60;;;;;;;-146.27;92.40;44939.47;5082820;28;20026;-75
2024/02/23 07:56:46;;;;;;;8.70;2.42;;;;;;;-146.27;93.26;44887.72;5073889;28;20070;-75
2024/02/23 07:59:11;;;;;;;7.00;2.60;;;;;;;-146.27;92.40;44887.72;5079513;28;20124;-75
2024/02/23 08:01:36;;;;;;;10.23;2.40;;;;;;;-146.27;93.19;44907.63;5071753;28;20025;-75
2024/02/23 08:04:03;;;;;;;11.65;2.40;;;;;;;-146.27;92.72;44887.72;5071181;28;20056;-74
2024/02/23 08:06:28;;;;;;;9.48;2.90;;;;;;;-146.27;93.48;44887.72;5049787;28;20496;-74
2024/02/23 08:08:55;;;;;;;10.98;3.20;;;;;;;-146.27;92.49;44879.75;5068724;28;20066;-74
2024/02/23 08:11:20;;;;;;;6.90;3.03;;;;;;;-146.27;92.74;44875.78;5067570;28;20103;-75
2024/02/23 08:13:45;;;;;;;7.18;2.53;;;;;;;-146.27;93.92;44867.81;5069827;28;20453;-75
2024/02/23 08:16:11;;;;;;;10.18;2.25;;;;;;;-146.27;92.85;44887.72;5068634;28;20039;-75
2024/02/23 08:18:36;;;;;;;7.00;2.60;;;;;;;-146.27;93.88;44971.31;5068700;28;20025;-74
2024/02/23 08:21:02;;;;;;;8.45;2.40;;;;;;;-146.27;94.02;44907.63;5067691;28;20136;-75
2024/02/23 08:23:29;;;;;;;10.55;2.20;;;;;;;-146.27;93.44;44911.59;5069618;28;20032;-74
2024/02/23 08:25:56;;;;;;;10.70;2.42;;;;;;;-146.27;94.21;44959.38;5069663;28;20045;-75
2024/02/23 08:28:22;;;;;;;11.60;2.72;;;;;;;-146.27;94.30;44999.16;5070942;28;20020;-75
2024/02/23 08:30:47;;;;;;;9.45;3.17;;;;;;;-146.27;93.87;44901.66;5069137;28;20079;-75
2024/02/23 08:33:13;;;;;;;5.82;2.20;;;;;;;-146.27;93.86;44959.38;5067661;28;20534;-75
2024/02/23 08:35:38;;;;;;;9.98;2.63;;;;;;;-146.27;93.61;44899.66;5065704;28;20024;-74
2024/02/23 08:38:04;;;;;;;3.08;1.35;;;;;;;-146.27;93.89;45029.00;5067609;28;20396;-75
2024/02/23 08:40:29;;;;;;;12.38;2.25;;;;;;;-146.27;93.89;44947.41;5068821;28;20477;-75
2024/02/23 08:42:55;;;;;;;3.78;1.52;;;;;;;-146.27;93.88;45001.16;5068613;28;20029;-75
2024/02/23 08:45:20;;;;;;;3.53;2.10;;;;;;;-146.27;94.63;44951.41;5068755;28;20101;-75
2024/02/23 08:47:46;;;;;;;7.00;2.35;;;;;;;-146.27;94.84;44927.53;5071791;28;20373;-76
2024/02/23 08:50:11;;;;;;;9.80;2.30;;;;;;;-146.27;94.32;44911.59;5072514;28;20473;-75
2024/02/23 08:52:37;;;;;;;11.23;2.30;;;;;;;-146.27;94.56;44881.75;5065785;28;20107;-76
2024/02/23 08:55:03;;;;;;;10.15;2.50;;;;;;;-146.27;94.31;44955.38;5067455;28;20380;-76
2024/02/23 08:57:28;;;;;;;6.38;1.92;;;;;;;-146.27;95.00;44959.38;5071898;28;20532;-76
2024/02/23 08:59:56;;;;;;;9.93;3.35;;;;;;;-146.27;94.54;44883.75;5071080;28;20174;-76
2024/02/23 09:02:22;;;;;;;8.88;2.60;;;;;;;-146.27;94.29;44975.28;5072420;28;20712;-76
2024/02/23 09:04:48;;;;;;;5.32;2.22;;;;;;;-146.27;94.61;45029.00;5067607;28;20044;-76
2024/02/23 09:07:13;;;;;;;6.65;2.72;;;;;;;-146.27;94.45;44939.47;5066567;28;20032;-76
2024/02/23 09:09:39;;;;;;;5.35;2.17;;;;;;;-146.27;93.63;44975.28;5067383;28;20127;-75
2024/02/23 09:12:06;;;;;;;5.15;2.10;;;;;;;-146.27;93.69;44963.34;5075187;28;20028;-75
2024/02/23 09:14:32;;;;;;;9.70;2.58;;;;;;;-146.27;93.38;44923.53;5068170;28;20123;-76
2024/02/23 09:16:58;;;;;;;5.68;2.50;;;;;;;-146.27;92.93;44935.47;5074360;28;20047;-77
2024/02/23 09:19:23;;;;;;;11.13;2.65;;;;;;;-146.27;93.22;45003.16;5072644;28;20024;-76
2024/02/23 09:21:49;;;;;;;5.80;1.85;;;;;;;-146.27;93.36;44929.50;5069735;28;20020;-76
2024/02/23 09:24:14;;;;;;;10.13;2.05;;;;;;;-146.27;92.43;44927.53;5070467;28;20039;-76
2024/02/23 09:26:40;;;;;;;8.18;1.98;;;;;;;-146.27;93.25;44999.16;5072342;28;20133;-76
2024/02/23 09:29:05;;;;;;;8.20;2.13;;;;;;;-146.27;92.42;44979.25;5075836;28;20108;-76
2024/02/23 09:31:31;;;;;;;8.13;1.67;;;;;;;-146.27;91.40;44959.38;5072247;28;20753;-77
2024/02/23 09:33:57;;;;;;;4.68;1.42;;;;;;;-146.27;91.21;44977.28;5074033;28;20039;-76
2024/02/23 09:36:23;;;;;;;5.43;1.75;;;;;;;-146.27;91.26;45007.13;5071709;28;20064;-76
2024/02/23 09:38:50;;;;;;;6.30;1.98;;;;;;;-146.27;91.35;45019.06;5072062;28;20048;-76
2024/02/23 09:41:21;;;;;;;10.32;1.88;;;;;;;-146.27;90.22;44927.53;5071378;28;20020;-76
2024/02/23 09:43:48;;;;;;;4.10;1.45;;;;;;;-146.27;90.37;45007.13;5069902;28;20032;-76
2024/02/23 09:46:14;;;;;;;9.50;1.70;;;;;;;-146.27;89.49;44915.59;5071853;28;20030;-77
2024/02/23 09:48:43;;;;;;;8.82;2.72;;;;;;;-146.27;89.20;44863.84;5071275;28;20029;-75
2024/02/23 09:51:11;;;;;;;6.78;1.95;;;;;;;-146.27;89.10;44929.50;5071747;28;20017;-76
2024/02/23 09:53:37;;;;;;;6.57;1.60;;;;;;;-146.27;89.19;44907.63;5069142;28;20473;-76
2024/02/23 09:56:04;;;;;;;5.95;1.33;;;;;;;-146.27;88.54;44907.63;5059735;28;20036;-75
2024/02/23 09:58:34;;;;;;;4.45;1.45;;;;;;;-146.27;88.72;44977.28;5070480;28;20036;-76
2024/02/23 10:01:02;;;;;;;3.67;1.42;;;;;;;-146.27;88.60;44979.25;5070724;28;20507;-76
2024/02/23 10:03:30;;;;;;;7.18;2.33;;;;;;;-146.27;88.67;44959.38;5071645;28;20485;-74
2024/02/23 10:05:56;;;;;;;6.38;1.55;;;;;;;-146.27;87.93;44989.22;5070801;28;20024;-74
2024/02/23 10:08:21;;;;;;;11.15;1.42;;;;;;;-146.27;86.87;44963.34;5068399;28;20036;-73
2024/02/23 10:10:49;;;;;;;7.88;1.30;;;;;;;-146.27;86.76;45015.09;5069166;28;20032;-74
2024/02/23 10:13:18;;;;;;;6.88;1.65;;;;;;;-146.27;85.68;44917.56;5072446;28;20477;-74
2024/02/23 10:15:44;;;;;;;2.03;1.15;;;;;;;-146.27;85.71;45078.75;5066990;28;20107;-74
2024/02/23 10:18:10;;;;;;;6.88;1.20;;;;;;;-146.27;85.52;44967.31;5068475;28;20108;-73
2024/02/23 10:20:37;;;;;;;5.35;1.23;;;;;;;-146.27;85.49;44995.19;5067973;28;20025;-74
2024/02/23 10:23:02;;;;;;;4.80;1.20;;;;;;;-146.27;83.89;45011.09;5069043;28;20089;-74
2024/02/23 10:25:27;;;;;;;4.45;1.27;;;;;;;-146.27;83.71;44917.56;5068573;28;20021;-74
2024/02/23 10:27:53;;;;;;;4.10;1.35;;;;;;;-146.27;83.81;44933.50;5067575;28;20047;-74
2024/02/23 10:30:18;;;;;;;6.85;1.20;;;;;;;-146.27;83.46;44911.59;5069994;28;20044;-74
2024/02/23 10:32:45;;;;;;;7.30;1.10;;;;;;;-146.27;82.99;44895.69;5067758;28;20043;-74
2024/02/23 10:35:15;;;;;;;4.72;1.25;;;;;;;-146.27;83.05;45003.16;5070502;28;20020;-73
2024/02/23 10:37:43;;;;;;;7.75;1.67;;;;;;;-146.27;82.68;44911.59;5066298;28;20028;-74
2024/02/23 10:40:12;;;;;;;6.28;1.23;;;;;;;-146.27;82.50;44957.38;5068136;28;20032;-73
2024/02/23 10:42:38;;;;;;;6.55;1.80;;;;;;;-146.27;83.04;44913.59;5070030;28;20021;-74
2024/02/23 10:45:05;;;;;;;4.78;2.08;;;;;;;-146.27;82.87;44959.38;5068745;28;20070;-74
2024/02/23 10:47:33;;;;;;;8.38;1.30;;;;;;;-146.27;82.80;45017.06;5069653;28;20492;-74
2024/02/23 10:50:01;;;;;;;6.38;1.13;;;;;;;-146.27;82.86;44933.50;5069806;28;20031;-73
2024/02/23 10:52:26;;;;;;;3.88;1.08;;;;;;;-146.27;80.73;44995.19;5068084;28;20059;-72
2024/02/23 10:54:53;;;;;;;7.05;2.45;;;;;;;-146.27;80.00;44770.31;5065712;28;20064;-72
2024/02/23 10:57:18;;;;;;;3.95;1.00;;;;;;;-146.27;79.23;44835.97;5066164;28;20028;-74
2024/02/23 10:59:48;;;;;;;6.72;1.63;;;;;;;-146.27;78.71;44857.88;5073907;28;20095;-72
2024/02/23 11:02:20;;;;;;;14.10;1.77;;;;;;;-146.27;79.12;45029.00;5071383;28;20495;-73
2024/02/23 11:04:52;;;;;;;6.57;1.25;;;;;;;-146.27;79.71;44935.47;5069855;28;20435;-74
2024/02/23 11:07:21;;;;;;;10.70;1.48;;;;;;;-146.27;78.57;44847.91;5070624;28;20029;-75